Time;durP1;ratioP1;P1;durP2;ratioP2;P2;SDS_P1;SDS_P2;PMS_P1;PMS_P2;Temp;Humidity;BMP_temperature;BMP_pressure;BME280_temperature;BME280_humidity;BME280_pressure;Samples;Min_cycle;Max_cycle;Signal;HPM_P1;HPM_P2
2022/10/25 00:01:36;;;;;;;0.57;0.57;;;;;;;;;;5054170;28;20321;-38
2022/10/25 00:04:03;;;;;;;1.63;0.70;;;;;;;;;;5047132;28;20206;-36
2022/10/25 00:06:30;;;;;;;0.93;0.50;;;;;;;;;;5190400;22;20315;-28
2022/10/25 00:08:57;;;;;;;0.70;0.60;;;;;;;;;;5149967;27;20199;-30
2022/10/25 00:11:25;;;;;;;0.47;0.47;;;;;;;;;;5143976;27;20223;-29
2022/10/25 00:13:55;;;;;;;0.93;0.60;;;;;;;;;;5141048;27;20199;-31
2022/10/25 00:16:23;;;;;;;0.43;0.43;;;;;;;;;;5133009;27;20214;-31
2022/10/25 00:18:51;;;;;;;2.90;0.60;;;;;;;;;;5139798;27;20717;-29
2022/10/25 00:21:18;;;;;;;0.63;0.63;;;;;;;;;;5133317;27;20219;-31
2022/10/25 00:23:45;;;;;;;0.63;0.63;;;;;;;;;;5153216;27;20231;-28
2022/10/25 00:26:13;;;;;;;1.53;0.70;;;;;;;;;;5129508;27;20204;-31
2022/10/25 00:28:40;;;;;;;1.53;0.90;;;;;;;;;;5128887;27;20201;-30
2022/10/25 00:31:10;;;;;;;0.47;0.47;;;;;;;;;;5145474;27;20227;-31
2022/10/25 00:33:38;;;;;;;5.33;2.10;;;;;;;;;;5138111;27;20199;-29
2022/10/25 00:36:07;;;;;;;0.87;0.87;;;;;;;;;;5135495;27;20304;-31
2022/10/25 00:38:34;;;;;;;0.50;0.50;;;;;;;;;;5149290;27;20664;-30
2022/10/25 00:41:03;;;;;;;3.23;0.80;;;;;;;;;;5133181;27;20229;-32
2022/10/25 00:43:34;;;;;;;1.33;0.73;;;;;;;;;;5121704;27;20193;-30
2022/10/25 00:46:02;;;;;;;1.00;0.80;;;;;;;;;;5151634;27;20213;-29
2022/10/25 00:48:31;;;;;;;1.37;0.70;;;;;;;;;;5139201;27;20211;-31
2022/10/25 00:50:58;;;;;;;0.80;0.70;;;;;;;;;;5129897;27;20231;-30
2022/10/25 00:53:28;;;;;;;1.60;0.70;;;;;;;;;;5148745;27;20646;-32
2022/10/25 00:55:57;;;;;;;0.50;0.50;;;;;;;;;;5111513;27;20267;-28
2022/10/25 00:58:26;;;;;;;0.50;0.50;;;;;;;;;;5132762;27;20196;-32
2022/10/25 01:00:55;;;;;;;0.60;0.60;;;;;;;;;;5137377;27;20239;-32
2022/10/25 01:03:23;;;;;;;0.57;0.57;;;;;;;;;;5122152;27;20192;-32
2022/10/25 01:05:52;;;;;;;2.10;0.70;;;;;;;;;;5140412;27;20298;-29
2022/10/25 01:08:19;;;;;;;0.53;0.53;;;;;;;;;;5138358;27;20201;-29
2022/10/25 01:10:48;;;;;;;1.53;0.70;;;;;;;;;;5137762;27;20318;-29
2022/10/25 01:13:15;;;;;;;3.63;0.80;;;;;;;;;;5132416;27;20207;-28
2022/10/25 01:15:47;;;;;;;1.00;1.00;;;;;;;;;;5151938;27;20195;-28
2022/10/25 01:18:17;;;;;;;0.90;0.90;;;;;;;;;;5144273;27;20215;-29
2022/10/25 01:21:06;;;;;;;2.03;0.70;;;;;;;;;;5135577;27;20268;-28
2022/10/25 01:23:45;;;;;;;0.70;0.70;;;;;;;;;;5123924;27;20203;-31
2022/10/25 01:26:24;;;;;;;0.50;0.50;;;;;;;;;;5124024;27;20204;-28
2022/10/25 01:28:59;;;;;;;0.60;0.60;;;;;;;;;;5126657;27;20218;-28
2022/10/25 01:31:32;;;;;;;0.93;0.77;;;;;;;;;;5132896;27;20223;-29
2022/10/25 01:34:02;;;;;;;1.70;1.10;;;;;;;;;;5136153;27;20637;-31
2022/10/25 01:36:35;;;;;;;1.47;0.70;;;;;;;;;;5138947;27;20195;-29
2022/10/25 01:39:06;;;;;;;0.57;0.57;;;;;;;;;;5144632;27;20205;-28
2022/10/25 01:41:38;;;;;;;1.20;0.80;;;;;;;;;;5128427;27;20219;-30
2022/10/25 01:44:12;;;;;;;0.67;0.67;;;;;;;;;;5140801;27;20198;-28
2022/10/25 01:46:43;;;;;;;0.60;0.60;;;;;;;;;;5152582;27;20209;-27
2022/10/25 01:49:12;;;;;;;1.40;0.80;;;;;;;;;;5138190;27;20207;-31
2022/10/25 01:51:40;;;;;;;0.70;0.70;;;;;;;;;;5141517;27;20227;-30
2022/10/25 01:54:18;;;;;;;1.73;0.80;;;;;;;;;;5150332;27;20288;-28
2022/10/25 01:56:49;;;;;;;3.23;0.83;;;;;;;;;;5143215;27;20210;-31
2022/10/25 01:59:37;;;;;;;10.73;1.10;;;;;;;;;;5132776;27;20207;-31
2022/10/25 02:02:11;;;;;;;1.80;0.77;;;;;;;;;;5138484;27;20211;-29
2022/10/25 02:04:43;;;;;;;3.17;1.17;;;;;;;;;;5120046;27;20204;-31
2022/10/25 02:07:12;;;;;;;2.77;0.83;;;;;;;;;;5152059;27;20207;-32
2022/10/25 02:09:44;;;;;;;10.27;0.90;;;;;;;;;;5152601;27;20211;-30
2022/10/25 02:12:14;;;;;;;3.80;0.60;;;;;;;;;;5152556;27;20233;-29
2022/10/25 02:14:46;;;;;;;2.60;0.80;;;;;;;;;;5132302;27;20204;-27
2022/10/25 02:17:18;;;;;;;1.23;0.60;;;;;;;;;;5142186;27;20206;-29
2022/10/25 02:19:47;;;;;;;1.90;0.90;;;;;;;;;;5127765;27;20204;-30
2022/10/25 02:22:15;;;;;;;8.20;0.77;;;;;;;;;;5138070;27;20203;-32
2022/10/25 02:24:43;;;;;;;1.60;0.70;;;;;;;;;;5152170;27;20423;-29
2022/10/25 02:27:11;;;;;;;1.77;0.60;;;;;;;;;;5152552;27;20202;-29
2022/10/25 02:29:39;;;;;;;0.60;0.60;;;;;;;;;;5131602;27;20211;-31
2022/10/25 02:32:06;;;;;;;0.93;0.60;;;;;;;;;;5147159;27;20215;-28
2022/10/25 02:34:35;;;;;;;2.60;0.70;;;;;;;;;;5132574;27;20199;-28
2022/10/25 02:37:02;;;;;;;0.73;0.60;;;;;;;;;;5137284;27;20214;-31
2022/10/25 02:39:29;;;;;;;0.60;0.60;;;;;;;;;;5122135;27;20204;-30
2022/10/25 02:41:57;;;;;;;1.83;0.80;;;;;;;;;;5116041;27;20209;-31
2022/10/25 02:44:24;;;;;;;1.07;0.60;;;;;;;;;;5125483;27;20210;-31
2022/10/25 02:46:51;;;;;;;2.30;0.60;;;;;;;;;;5122163;27;20214;-30
2022/10/25 02:49:18;;;;;;;0.60;0.60;;;;;;;;;;5132452;27;20208;-30
2022/10/25 02:51:46;;;;;;;0.50;0.50;;;;;;;;;;5144647;27;20234;-31
2022/10/25 02:54:13;;;;;;;1.57;0.53;;;;;;;;;;5151371;27;20222;-32
2022/10/25 02:56:41;;;;;;;0.50;0.50;;;;;;;;;;5144509;27;20198;-33
2022/10/25 02:59:08;;;;;;;0.80;0.80;;;;;;;;;;5128606;27;20215;-29
2022/10/25 03:01:35;;;;;;;2.10;0.60;;;;;;;;;;5141561;27;20310;-33
2022/10/25 03:04:02;;;;;;;4.07;0.60;;;;;;;;;;5127946;27;20204;-27
2022/10/25 03:06:29;;;;;;;0.50;0.50;;;;;;;;;;5146206;27;20217;-32
2022/10/25 03:08:58;;;;;;;0.60;0.60;;;;;;;;;;5138760;27;20209;-31
2022/10/25 03:11:25;;;;;;;0.40;0.40;;;;;;;;;;5143794;27;20219;-27
2022/10/25 03:13:52;;;;;;;0.50;0.50;;;;;;;;;;5147510;27;20206;-30
2022/10/25 03:16:19;;;;;;;0.40;0.40;;;;;;;;;;5144656;27;20210;-31
2022/10/25 03:18:46;;;;;;;0.40;0.40;;;;;;;;;;5137932;27;20196;-29
2022/10/25 03:21:13;;;;;;;0.33;0.33;;;;;;;;;;5150539;27;20253;-29
2022/10/25 03:23:40;;;;;;;0.50;0.50;;;;;;;;;;5154078;27;20195;-27
2022/10/25 03:26:09;;;;;;;0.63;0.60;;;;;;;;;;5158102;27;20214;-28
2022/10/25 03:28:36;;;;;;;1.60;0.50;;;;;;;;;;5136783;27;20288;-31
2022/10/25 03:31:03;;;;;;;0.40;0.40;;;;;;;;;;5147871;27;20237;-30
2022/10/25 03:33:30;;;;;;;1.30;0.43;;;;;;;;;;5140215;27;20198;-32
2022/10/25 03:35:57;;;;;;;0.73;0.73;;;;;;;;;;5147991;27;20213;-32
2022/10/25 03:38:24;;;;;;;0.77;0.60;;;;;;;;;;5153345;27;20198;-30
2022/10/25 03:40:52;;;;;;;3.80;0.70;;;;;;;;;;5157720;27;20215;-30
2022/10/25 03:43:20;;;;;;;1.43;0.50;;;;;;;;;;5130226;27;20215;-32
2022/10/25 03:45:47;;;;;;;0.67;0.67;;;;;;;;;;5138759;27;20233;-31
2022/10/25 03:48:15;;;;;;;3.30;0.60;;;;;;;;;;5151918;27;20226;-29
2022/10/25 03:50:42;;;;;;;0.60;0.50;;;;;;;;;;5140207;27;20210;-30
2022/10/25 03:53:10;;;;;;;2.73;0.67;;;;;;;;;;5157198;27;20202;-31
2022/10/25 03:55:37;;;;;;;0.50;0.50;;;;;;;;;;5157558;27;20210;-27
2022/10/25 03:58:04;;;;;;;0.50;0.50;;;;;;;;;;5126652;27;20291;-29
2022/10/25 04:00:33;;;;;;;0.70;0.70;;;;;;;;;;5142443;27;20225;-30
2022/10/25 04:03:01;;;;;;;0.50;0.50;;;;;;;;;;5152816;27;20207;-31
2022/10/25 04:05:28;;;;;;;0.50;0.50;;;;;;;;;;5140725;27;20211;-29
2022/10/25 04:07:55;;;;;;;1.97;0.60;;;;;;;;;;5157398;27;20198;-31
2022/10/25 04:10:22;;;;;;;0.70;0.70;;;;;;;;;;5157338;27;20222;-31
2022/10/25 04:12:51;;;;;;;0.70;0.70;;;;;;;;;;5137123;27;20220;-30
2022/10/25 04:15:19;;;;;;;1.90;0.80;;;;;;;;;;5148073;27;20297;-30
2022/10/25 04:17:50;;;;;;;0.60;0.60;;;;;;;;;;5158092;27;20217;-28
2022/10/25 04:20:18;;;;;;;0.80;0.80;;;;;;;;;;5146039;27;20310;-32
2022/10/25 04:22:45;;;;;;;3.23;0.60;;;;;;;;;;5161650;27;20190;-29
2022/10/25 04:25:12;;;;;;;0.73;0.53;;;;;;;;;;5129714;27;20215;-29
2022/10/25 04:27:39;;;;;;;0.53;0.53;;;;;;;;;;5128143;27;20286;-29
2022/10/25 04:30:07;;;;;;;5.10;0.80;;;;;;;;;;5137827;27;20219;-28
2022/10/25 04:32:34;;;;;;;1.97;0.83;;;;;;;;;;5141127;27;20275;-31
2022/10/25 04:35:02;;;;;;;3.10;0.80;;;;;;;;;;5119828;27;20209;-30
2022/10/25 04:37:29;;;;;;;0.77;0.77;;;;;;;;;;5119200;27;20205;-31
2022/10/25 04:39:57;;;;;;;3.00;0.70;;;;;;;;;;5118303;27;20226;-31
2022/10/25 04:42:24;;;;;;;1.03;0.93;;;;;;;;;;5132388;27;20203;-29
2022/10/25 04:44:51;;;;;;;0.60;0.60;;;;;;;;;;5123856;27;20266;-31
2022/10/25 04:47:18;;;;;;;1.10;0.90;;;;;;;;;;5144432;27;20210;-30
2022/10/25 04:49:45;;;;;;;0.80;0.80;;;;;;;;;;5140144;27;20199;-31
2022/10/25 04:52:14;;;;;;;0.80;0.80;;;;;;;;;;5146098;27;20289;-29
2022/10/25 04:54:41;;;;;;;0.70;0.70;;;;;;;;;;5143808;27;20197;-31
2022/10/25 04:57:08;;;;;;;1.10;1.10;;;;;;;;;;5135039;27;20527;-32
2022/10/25 04:59:35;;;;;;;0.73;0.73;;;;;;;;;;5124750;27;20196;-32
2022/10/25 05:02:02;;;;;;;1.27;0.90;;;;;;;;;;5141122;27;20557;-31
2022/10/25 05:04:30;;;;;;;0.70;0.70;;;;;;;;;;5131278;27;20307;-30
2022/10/25 05:06:57;;;;;;;1.83;0.80;;;;;;;;;;5155500;27;20215;-30
2022/10/25 05:09:25;;;;;;;5.13;0.83;;;;;;;;;;5147980;27;20210;-29
2022/10/25 05:11:52;;;;;;;1.57;0.93;;;;;;;;;;5114921;27;20268;-28
2022/10/25 05:14:20;;;;;;;1.20;0.80;;;;;;;;;;5131280;27;20302;-31
2022/10/25 05:16:47;;;;;;;4.00;1.60;;;;;;;;;;5143633;27;20209;-29
2022/10/25 05:19:14;;;;;;;0.70;0.70;;;;;;;;;;5136485;27;20208;-32
2022/10/25 05:21:41;;;;;;;4.83;1.10;;;;;;;;;;5148738;27;20219;-31
2022/10/25 05:24:08;;;;;;;0.70;0.70;;;;;;;;;;5148603;27;20209;-28
2022/10/25 05:26:37;;;;;;;0.60;0.60;;;;;;;;;;5129834;27;20195;-27
2022/10/25 05:29:04;;;;;;;0.93;0.70;;;;;;;;;;5133156;27;20211;-28
2022/10/25 05:31:31;;;;;;;4.10;0.83;;;;;;;;;;5135945;27;20215;-32
2022/10/25 05:33:59;;;;;;;0.83;0.83;;;;;;;;;;5129443;27;20203;-29
2022/10/25 05:36:27;;;;;;;0.67;0.67;;;;;;;;;;5134547;27;20198;-32
2022/10/25 05:38:54;;;;;;;0.60;0.60;;;;;;;;;;5132986;27;20202;-34
2022/10/25 05:41:21;;;;;;;3.67;1.07;;;;;;;;;;5126931;27;20229;-32
2022/10/25 05:43:50;;;;;;;3.23;0.97;;;;;;;;;;5123386;27;20238;-31
2022/10/25 05:46:18;;;;;;;1.80;0.77;;;;;;;;;;5147838;27;20228;-30
2022/10/25 05:48:45;;;;;;;8.27;1.10;;;;;;;;;;5139732;27;20226;-32
2022/10/25 05:51:14;;;;;;;0.83;0.83;;;;;;;;;;5136260;27;20233;-31
2022/10/25 05:53:44;;;;;;;0.80;0.80;;;;;;;;;;5144092;27;20206;-30
2022/10/25 05:56:13;;;;;;;3.43;0.80;;;;;;;;;;5152729;27;20202;-33
2022/10/25 05:58:40;;;;;;;1.00;1.00;;;;;;;;;;5138889;27;20211;-31
2022/10/25 06:01:09;;;;;;;0.83;0.83;;;;;;;;;;5136393;27;20249;-28
2022/10/25 06:03:36;;;;;;;3.80;1.10;;;;;;;;;;5141877;27;20210;-30
2022/10/25 06:11:08;;;;;;;3.27;1.00;;;;;;;;;;5072459;28;20686;-32
2022/10/25 06:13:36;;;;;;;7.50;1.10;;;;;;;;;;5066722;28;20227;-34
2022/10/25 06:16:04;;;;;;;5.27;1.13;;;;;;;;;;5069864;28;20718;-35
2022/10/25 06:18:33;;;;;;;3.33;0.80;;;;;;;;;;5071053;28;20201;-35
2022/10/25 06:21:02;;;;;;;1.00;0.90;;;;;;;;;;5071217;28;20248;-34
2022/10/25 06:23:30;;;;;;;5.20;1.10;;;;;;;;;;5072750;28;20197;-35
2022/10/25 06:26:00;;;;;;;5.53;1.10;;;;;;;;;;5072960;28;20243;-34
2022/10/25 06:28:27;;;;;;;12.43;1.37;;;;;;;;;;5068231;28;20221;-35
2022/10/25 06:31:00;;;;;;;5.90;1.03;;;;;;;;;;5072617;28;20426;-35
2022/10/25 06:33:27;;;;;;;1.10;1.00;;;;;;;;;;5055689;28;20225;-33
2022/10/25 06:35:56;;;;;;;2.00;1.30;;;;;;;;;;5071944;28;20213;-34
2022/10/25 06:38:23;;;;;;;0.80;0.80;;;;;;;;;;5071762;28;20210;-34
2022/10/25 06:40:51;;;;;;;3.13;1.00;;;;;;;;;;5072727;28;20325;-35
2022/10/25 06:43:18;;;;;;;5.30;1.33;;;;;;;;;;5063087;28;20457;-36
2022/10/25 06:45:45;;;;;;;1.20;1.10;;;;;;;;;;5060031;28;20284;-35
2022/10/25 06:48:12;;;;;;;1.27;1.17;;;;;;;;;;5068003;28;20209;-36
2022/10/25 06:50:39;;;;;;;8.73;1.77;;;;;;;;;;5068176;28;20227;-36
2022/10/25 06:53:07;;;;;;;13.47;7.43;;;;;;;;;;5072090;28;20229;-34
2022/10/25 06:55:36;;;;;;;1.97;1.57;;;;;;;;;;5072545;28;20227;-32
2022/10/25 06:58:03;;;;;;;2.27;1.40;;;;;;;;;;5060039;28;20210;-36
2022/10/25 07:00:31;;;;;;;1.63;1.40;;;;;;;;;;5071998;28;20332;-33
2022/10/25 07:02:59;;;;;;;1.67;1.50;;;;;;;;;;5070602;28;20207;-34
2022/10/25 07:05:26;;;;;;;1.63;1.40;;;;;;;;;;5061511;28;20209;-35
2022/10/25 07:07:54;;;;;;;3.17;1.77;;;;;;;;;;5070677;28;20677;-32
2022/10/25 07:10:23;;;;;;;1.60;1.50;;;;;;;;;;5071666;28;20243;-34
2022/10/25 07:12:50;;;;;;;1.67;1.57;;;;;;;;;;5068660;28;20233;-31
2022/10/25 07:15:17;;;;;;;2.00;1.30;;;;;;;;;;5063468;28;20393;-33
2022/10/25 07:17:44;;;;;;;1.30;1.20;;;;;;;;;;5071812;28;20211;-33
2022/10/25 07:20:12;;;;;;;2.30;1.50;;;;;;;;;;5064508;28;20231;-32
2022/10/25 07:22:39;;;;;;;4.70;1.90;;;;;;;;;;5071061;28;20208;-32
2022/10/25 07:25:06;;;;;;;2.60;1.50;;;;;;;;;;5071817;28;20296;-30
2022/10/25 07:27:34;;;;;;;1.73;1.60;;;;;;;;;;5056754;28;20205;-34
2022/10/25 07:30:01;;;;;;;1.87;1.70;;;;;;;;;;5069257;28;20229;-30
2022/10/25 07:32:29;;;;;;;4.37;1.87;;;;;;;;;;5069493;28;20652;-34
2022/10/25 07:34:56;;;;;;;2.60;1.70;;;;;;;;;;5063926;28;20303;-34
2022/10/25 07:37:23;;;;;;;1.93;1.83;;;;;;;;;;5070809;28;20288;-33
2022/10/25 07:39:50;;;;;;;2.73;2.00;;;;;;;;;;5071686;28;20229;-32
2022/10/25 07:42:17;;;;;;;2.10;1.90;;;;;;;;;;5071599;28;20260;-35
2022/10/25 07:44:46;;;;;;;2.23;2.00;;;;;;;;;;5065079;28;20208;-39
2022/10/25 07:47:13;;;;;;;4.57;2.30;;;;;;;;;;5070069;28;20205;-32
2022/10/25 07:49:40;;;;;;;1.93;1.80;;;;;;;;;;5064221;28;20227;-35
2022/10/25 07:52:07;;;;;;;1.90;1.80;;;;;;;;;;5070293;28;20762;-33
2022/10/25 07:54:34;;;;;;;3.87;2.63;;;;;;;;;;5071571;28;20209;-36
2022/10/25 07:57:01;;;;;;;1.93;1.67;;;;;;;;;;5067910;28;20208;-34
2022/10/25 07:59:28;;;;;;;1.77;1.67;;;;;;;;;;5071639;28;20208;-33
2022/10/25 08:01:57;;;;;;;2.57;2.00;;;;;;;;;;5075070;28;20201;-33
2022/10/25 08:04:24;;;;;;;2.43;1.70;;;;;;;;;;5064041;28;20210;-36
2022/10/25 08:06:51;;;;;;;1.80;1.70;;;;;;;;;;5069198;28;20209;-35
2022/10/25 08:09:18;;;;;;;2.83;2.13;;;;;;;;;;5074255;28;20300;-31
2022/10/25 08:11:45;;;;;;;2.07;1.87;;;;;;;;;;5074436;28;20936;-34
2022/10/25 08:14:12;;;;;;;2.17;1.87;;;;;;;;;;5069947;28;20225;-34
2022/10/25 08:16:40;;;;;;;2.20;2.00;;;;;;;;;;5073638;28;20723;-32
2022/10/25 08:19:08;;;;;;;2.90;1.93;;;;;;;;;;5064588;28;20206;-33
2022/10/25 08:21:35;;;;;;;4.03;2.23;;;;;;;;;;5072890;28;20240;-35
2022/10/25 08:24:02;;;;;;;3.90;1.93;;;;;;;;;;5074342;28;20731;-34
2022/10/25 08:26:29;;;;;;;2.13;1.93;;;;;;;;;;5070402;28;20285;-34
2022/10/25 08:28:57;;;;;;;3.23;2.20;;;;;;;;;;5072887;28;20265;-32
2022/10/25 08:31:24;;;;;;;3.37;2.30;;;;;;;;;;5073748;28;20237;-35
2022/10/25 08:33:51;;;;;;;3.03;2.13;;;;;;;;;;5067174;28;20232;-35
2022/10/25 08:36:19;;;;;;;3.03;2.13;;;;;;;;;;5070776;28;20206;-32
2022/10/25 08:38:47;;;;;;;1.97;1.77;;;;;;;;;;5067595;28;20203;-35
2022/10/25 08:41:18;;;;;;;2.80;1.90;;;;;;;;;;5070721;28;20243;-36
2022/10/25 08:43:59;;;;;;;3.60;1.80;;;;;;;;;;5066921;28;20194;-34
2022/10/25 08:46:28;;;;;;;5.13;2.10;;;;;;;;;;5073349;28;20193;-36
2022/10/25 08:49:02;;;;;;;2.00;1.80;;;;;;;;;;5071240;28;20211;-32
2022/10/25 08:51:33;;;;;;;1.80;1.70;;;;;;;;;;5073618;28;20316;-32
2022/10/25 08:54:03;;;;;;;3.10;1.80;;;;;;;;;;5073979;28;20548;-35
2022/10/25 08:56:31;;;;;;;2.93;2.10;;;;;;;;;;5072038;28;20211;-33
2022/10/25 08:59:00;;;;;;;4.60;2.33;;;;;;;;;;5066592;28;20309;-31
2022/10/25 09:01:29;;;;;;;2.10;2.00;;;;;;;;;;5072771;28;20225;-35
2022/10/25 09:03:56;;;;;;;2.30;2.07;;;;;;;;;;5068406;28;20206;-34
2022/10/25 09:06:30;;;;;;;2.13;1.63;;;;;;;;;;5072543;28;20217;-32
2022/10/25 09:09:04;;;;;;;2.00;1.80;;;;;;;;;;5073681;28;20231;-36
2022/10/25 09:11:47;;;;;;;6.13;2.20;;;;;;;;;;5063523;28;20244;-32
2022/10/25 09:14:18;;;;;;;2.40;2.10;;;;;;;;;;5070274;28;20260;-33
2022/10/25 09:16:50;;;;;;;5.90;1.70;;;;;;;;;;5069254;28;20277;-33
2022/10/25 09:19:19;;;;;;;2.43;1.70;;;;;;;;;;5064973;28;20201;-34
2022/10/25 09:21:49;;;;;;;2.10;1.40;;;;;;;;;;5073619;28;20695;-34
2022/10/25 09:24:21;;;;;;;2.60;1.70;;;;;;;;;;5073805;28;20198;-32
2022/10/25 09:26:51;;;;;;;3.20;1.53;;;;;;;;;;5066074;28;20209;-30
2022/10/25 09:29:23;;;;;;;1.80;1.57;;;;;;;;;;5069444;28;20219;-35
2022/10/25 09:31:52;;;;;;;2.77;1.57;;;;;;;;;;5073233;28;20706;-35
2022/10/25 09:34:20;;;;;;;4.77;1.50;;;;;;;;;;5067178;28;20215;-31
2022/10/25 09:36:49;;;;;;;5.57;1.57;;;;;;;;;;5073198;28;20214;-36
2022/10/25 09:39:20;;;;;;;1.80;1.20;;;;;;;;;;5072889;28;20517;-34
2022/10/25 09:41:50;;;;;;;2.77;1.53;;;;;;;;;;5063449;28;20233;-31
2022/10/25 09:44:19;;;;;;;2.03;1.20;;;;;;;;;;5066816;28;20231;-33
2022/10/25 09:46:49;;;;;;;2.77;1.40;;;;;;;;;;5073035;28;20197;-34
2022/10/25 09:49:21;;;;;;;3.73;1.70;;;;;;;;;;5069093;28;20210;-35
2022/10/25 09:51:56;;;;;;;4.67;1.20;;;;;;;;;;5072010;28;20225;-32
2022/10/25 09:54:27;;;;;;;5.20;1.53;;;;;;;;;;5073477;28;20209;-33
2022/10/25 09:56:54;;;;;;;3.63;1.90;;;;;;;;;;5067487;28;20213;-34
2022/10/25 09:59:21;;;;;;;1.80;1.20;;;;;;;;;;5070892;28;20211;-35
2022/10/25 10:01:48;;;;;;;4.30;1.83;;;;;;;;;;5073303;28;20247;-35
2022/10/25 10:04:23;;;;;;;5.87;1.87;;;;;;;;;;5069399;28;20201;-35
2022/10/25 10:06:51;;;;;;;2.60;1.27;;;;;;;;;;5072985;28;20213;-35
2022/10/25 10:09:19;;;;;;;2.07;1.47;;;;;;;;;;5058466;28;20213;-35
2022/10/25 10:11:48;;;;;;;3.23;1.30;;;;;;;;;;5070223;28;20231;-35
2022/10/25 10:14:19;;;;;;;6.87;1.50;;;;;;;;;;5065286;28;20226;-36
2022/10/25 10:16:48;;;;;;;7.27;1.47;;;;;;;;;;5065976;28;20296;-33
2022/10/25 10:19:17;;;;;;;2.30;1.20;;;;;;;;;;5067416;28;20210;-35
2022/10/25 10:21:45;;;;;;;3.07;1.30;;;;;;;;;;5067098;28;20252;-33
2022/10/25 10:24:16;;;;;;;4.97;1.23;;;;;;;;;;5071044;28;20207;-33
2022/10/25 10:26:47;;;;;;;2.90;1.30;;;;;;;;;;5054904;28;20202;-34
2022/10/25 10:29:18;;;;;;;3.97;1.30;;;;;;;;;;5065344;28;20474;-32
2022/10/25 10:31:47;;;;;;;4.47;1.37;;;;;;;;;;5070069;28;20722;-32
2022/10/25 10:34:23;;;;;;;3.27;1.40;;;;;;;;;;5066609;28;20236;-33
2022/10/25 10:37:01;;;;;;;3.47;1.50;;;;;;;;;;5068239;28;20214;-35
2022/10/25 10:39:28;;;;;;;2.60;1.70;;;;;;;;;;5069921;28;20194;-34
2022/10/25 10:42:01;;;;;;;4.27;1.83;;;;;;;;;;5069306;28;20272;-32
2022/10/25 10:44:33;;;;;;;5.37;1.33;;;;;;;;;;5061489;28;20196;-32
2022/10/25 10:47:03;;;;;;;1.80;1.60;;;;;;;;;;5069777;28;20554;-32
2022/10/25 10:49:38;;;;;;;2.83;1.43;;;;;;;;;;5065085;28;20284;-33
2022/10/25 10:52:05;;;;;;;3.93;1.50;;;;;;;;;;5068756;28;20297;-32
2022/10/25 10:54:34;;;;;;;2.43;1.23;;;;;;;;;;5069943;28;20221;-34
2022/10/25 10:57:02;;;;;;;1.27;1.13;;;;;;;;;;5062034;28;20212;-33
2022/10/25 10:59:36;;;;;;;1.67;1.10;;;;;;;;;;5068729;28;20288;-35
2022/10/25 11:02:28;;;;;;;3.33;1.23;;;;;;;;;;5068803;28;20248;-35
2022/10/25 11:04:56;;;;;;;2.47;1.10;;;;;;;;;;5050464;28;20213;-34
2022/10/25 11:07:30;;;;;;;3.93;1.80;;;;;;;;;;5069505;28;20269;-30
2022/10/25 11:10:16;;;;;;;1.73;1.20;;;;;;;;;;5068932;28;20276;-34
2022/10/25 11:12:43;;;;;;;2.30;1.00;;;;;;;;;;5064038;28;20227;-35
2022/10/25 11:15:12;;;;;;;1.87;0.90;;;;;;;;;;5066207;28;20232;-33
2022/10/25 11:17:43;;;;;;;3.03;1.30;;;;;;;;;;5063872;28;20284;-31
2022/10/25 11:20:20;;;;;;;2.60;0.90;;;;;;;;;;5063794;28;20306;-34
2022/10/25 11:22:56;;;;;;;1.23;0.90;;;;;;;;;;5070747;28;20201;-32
2022/10/25 11:25:29;;;;;;;2.63;1.30;;;;;;;;;;5068199;28;20205;-36
2022/10/25 11:28:02;;;;;;;2.03;1.00;;;;;;;;;;5055794;28;20335;-35
2022/10/25 11:30:35;;;;;;;2.23;0.90;;;;;;;;;;5068417;28;20228;-36
2022/10/25 11:33:17;;;;;;;3.07;1.30;;;;;;;;;;5067110;28;20243;-31
2022/10/25 11:35:47;;;;;;;4.20;1.10;;;;;;;;;;5064440;28;20213;-31
2022/10/25 11:38:17;;;;;;;0.80;0.80;;;;;;;;;;5070158;28;20216;-32
2022/10/25 11:40:47;;;;;;;1.40;0.80;;;;;;;;;;5072712;28;20252;-37
2022/10/25 11:43:26;;;;;;;2.10;0.83;;;;;;;;;;5066211;28;20216;-32
2022/10/25 11:45:57;;;;;;;7.63;1.30;;;;;;;;;;5059566;28;20212;-37
2022/10/25 11:48:30;;;;;;;5.83;0.90;;;;;;;;;;5070162;28;20193;-35
2022/10/25 11:51:00;;;;;;;1.80;0.70;;;;;;;;;;5067729;28;21093;-31
2022/10/25 11:53:35;;;;;;;3.83;0.90;;;;;;;;;;5072022;28;20221;-35
2022/10/25 11:56:05;;;;;;;1.93;0.90;;;;;;;;;;5069430;28;20281;-33
2022/10/25 11:58:37;;;;;;;2.17;1.20;;;;;;;;;;5067232;28;20201;-32
2022/10/25 12:01:08;;;;;;;1.37;0.83;;;;;;;;;;5072352;28;20224;-35
2022/10/25 12:03:45;;;;;;;5.27;1.07;;;;;;;;;;5069106;28;20201;-35
2022/10/25 12:06:15;;;;;;;3.73;0.97;;;;;;;;;;5068729;28;20296;-32
2022/10/25 12:08:46;;;;;;;1.83;0.60;;;;;;;;;;5071876;28;20300;-37
2022/10/25 12:11:16;;;;;;;0.70;0.70;;;;;;;;;;5070475;28;20225;-34
2022/10/25 12:13:44;;;;;;;4.43;1.00;;;;;;;;;;5062836;28;20249;-34
2022/10/25 12:16:15;;;;;;;2.37;0.87;;;;;;;;;;5068125;28;20206;-36
2022/10/25 12:18:43;;;;;;;4.13;1.00;;;;;;;;;;5065612;28;20195;-32
2022/10/25 12:21:12;;;;;;;2.83;0.87;;;;;;;;;;5069336;28;20307;-32
2022/10/25 12:23:41;;;;;;;1.80;0.80;;;;;;;;;;5072207;28;20225;-33
2022/10/25 12:26:12;;;;;;;1.97;0.80;;;;;;;;;;5054812;28;20198;-32
2022/10/25 12:28:43;;;;;;;1.70;0.90;;;;;;;;;;5062801;28;20206;-35
2022/10/25 12:31:14;;;;;;;3.37;1.00;;;;;;;;;;5070066;28;20231;-33
2022/10/25 12:33:44;;;;;;;2.27;0.83;;;;;;;;;;5064979;28;20221;-35
2022/10/25 12:36:14;;;;;;;3.27;0.67;;;;;;;;;;5067670;28;20201;-33
2022/10/25 12:38:41;;;;;;;2.53;0.90;;;;;;;;;;5070491;28;20207;-35
2022/10/25 12:41:14;;;;;;;2.90;1.33;;;;;;;;;;5067589;28;20218;-37
2022/10/25 12:43:45;;;;;;;1.37;0.70;;;;;;;;;;5051023;28;20205;-34
2022/10/25 12:46:21;;;;;;;1.70;0.90;;;;;;;;;;5060323;28;20308;-34
2022/10/25 12:49:06;;;;;;;1.43;0.60;;;;;;;;;;5060645;28;20230;-32
2022/10/25 12:51:41;;;;;;;1.50;0.60;;;;;;;;;;5070704;28;20217;-35
2022/10/25 12:54:16;;;;;;;1.93;0.77;;;;;;;;;;5074444;28;20212;-32
2022/10/25 12:56:45;;;;;;;0.63;0.63;;;;;;;;;;5070220;28;20208;-37
2022/10/25 12:59:23;;;;;;;2.07;0.60;;;;;;;;;;5073442;28;20215;-35
2022/10/25 13:01:59;;;;;;;1.17;0.70;;;;;;;;;;5074146;28;20221;-31
2022/10/25 13:04:35;;;;;;;2.00;0.80;;;;;;;;;;5066676;28;20224;-35
2022/10/25 13:07:03;;;;;;;1.20;0.80;;;;;;;;;;5073712;28;20208;-36
2022/10/25 13:09:32;;;;;;;2.47;0.83;;;;;;;;;;5072525;28;20209;-31
2022/10/25 13:12:00;;;;;;;0.80;0.63;;;;;;;;;;5071069;28;20201;-35
2022/10/25 13:14:29;;;;;;;1.40;0.97;;;;;;;;;;5069967;28;20229;-33
2022/10/25 13:17:15;;;;;;;10.10;0.80;;;;;;;;;;5063708;28;20208;-32
2022/10/25 13:19:44;;;;;;;4.40;0.80;;;;;;;;;;5060518;28;20194;-37
2022/10/25 13:22:13;;;;;;;0.50;0.50;;;;;;;;;;5068279;28;20263;-34
2022/10/25 13:24:41;;;;;;;0.60;0.60;;;;;;;;;;5159826;22;20232;-32
2022/10/25 13:27:17;;;;;;;2.07;1.00;;;;;;;;;;5101002;28;20200;-33
2022/10/25 13:29:49;;;;;;;1.27;0.70;;;;;;;;;;5114096;28;20199;-31
2022/10/25 13:32:18;;;;;;;1.07;0.80;;;;;;;;;;5080103;28;20289;-31
2022/10/25 13:34:46;;;;;;;2.63;1.00;;;;;;;;;;5088758;28;20220;-32
2022/10/25 13:37:29;;;;;;;3.40;0.70;;;;;;;;;;5090446;28;20295;-31
2022/10/25 13:39:58;;;;;;;2.57;0.77;;;;;;;;;;5077116;28;20225;-30
2022/10/25 13:42:29;;;;;;;0.60;0.60;;;;;;;;;;5094860;28;20203;-31
2022/10/25 13:45:07;;;;;;;2.00;0.50;;;;;;;;;;5077358;28;20185;-31
2022/10/25 13:47:36;;;;;;;2.93;0.67;;;;;;;;;;5098411;28;20204;-34
2022/10/25 13:50:14;;;;;;;3.50;0.57;;;;;;;;;;5081292;28;20220;-33
2022/10/25 13:52:44;;;;;;;1.90;0.70;;;;;;;;;;5082544;28;20292;-31
2022/10/25 13:55:14;;;;;;;1.07;0.77;;;;;;;;;;5084773;28;20224;-32
2022/10/25 13:57:45;;;;;;;3.07;0.93;;;;;;;;;;5086105;28;20197;-33
2022/10/25 14:00:26;;;;;;;0.97;0.50;;;;;;;;;;5097537;28;20718;-33
2022/10/25 14:03:12;;;;;;;2.30;0.50;;;;;;;;;;5077479;28;20200;-32
2022/10/25 14:05:58;;;;;;;2.10;0.50;;;;;;;;;;5088296;28;20193;-32
2022/10/25 14:08:29;;;;;;;0.80;0.70;;;;;;;;;;5092604;28;20200;-29
2022/10/25 14:10:56;;;;;;;0.60;0.60;;;;;;;;;;5086092;28;20286;-31
2022/10/25 14:13:26;;;;;;;5.10;0.60;;;;;;;;;;5079743;28;20287;-32
2022/10/25 14:15:56;;;;;;;1.50;0.63;;;;;;;;;;5082685;28;20230;-29
2022/10/25 14:18:24;;;;;;;1.43;0.70;;;;;;;;;;5094851;28;20194;-33
2022/10/25 14:20:54;;;;;;;0.70;0.70;;;;;;;;;;5080598;28;20228;-31
2022/10/25 14:23:22;;;;;;;1.37;0.60;;;;;;;;;;5078657;28;20209;-31
2022/10/25 14:25:53;;;;;;;1.33;0.60;;;;;;;;;;5067815;28;20255;-32
2022/10/25 14:28:25;;;;;;;1.80;0.80;;;;;;;;;;5084826;28;20215;-29
2022/10/25 14:30:53;;;;;;;2.33;0.60;;;;;;;;;;5086763;28;20230;-34
2022/10/25 14:33:22;;;;;;;2.07;0.70;;;;;;;;;;5088984;28;20212;-34
2022/10/25 14:35:50;;;;;;;1.33;0.73;;;;;;;;;;5089829;28;20223;-32
2022/10/25 14:38:18;;;;;;;1.67;0.90;;;;;;;;;;5093010;28;20203;-33
2022/10/25 14:40:52;;;;;;;0.90;0.73;;;;;;;;;;5087703;28;20235;-30
2022/10/25 14:43:24;;;;;;;6.13;1.27;;;;;;;;;;5086548;28;20209;-33
2022/10/25 14:46:02;;;;;;;2.07;0.77;;;;;;;;;;5080404;28;20199;-31
2022/10/25 14:48:29;;;;;;;0.73;0.60;;;;;;;;;;5074694;28;20197;-30
2022/10/25 14:50:58;;;;;;;2.03;0.80;;;;;;;;;;5090510;28;20232;-29
2022/10/25 14:53:27;;;;;;;2.60;0.80;;;;;;;;;;5084218;28;20204;-33
2022/10/25 14:55:56;;;;;;;1.10;0.50;;;;;;;;;;5092095;28;20228;-31
2022/10/25 14:58:24;;;;;;;1.27;0.60;;;;;;;;;;5088439;28;20577;-35
2022/10/25 15:00:56;;;;;;;3.40;0.70;;;;;;;;;;5082270;28;20740;-33
2022/10/25 15:03:23;;;;;;;1.37;0.70;;;;;;;;;;5075873;28;20208;-33